Terminal Aerodrome Forecast
Issued by NWS

Home | Current Version | Previous Version | Text Only | Print | Product List | Glossary On
Versions: 1 2 3 4 5 6 7 8 9 10 11 12 13
000
FTUS46 KLOX 301100 RRA
TAFPRB
TAF
KPRB 301142Z 3012/3112 VRB03KT P6SM BKN200
     FM302100 21012G20KT P6SM SCT150 BKN200
     FM310300 24006KT P6SM OVC100
     FM310900 20006KT P6SM BKN030 OVC100=

USA.gov is the U.S. government's official web portal to all federal, state and local government web resources and services.